createdAt,value
2024-01-14T00:00:11.938Z,100999.28
2024-01-14T00:02:40.943Z,101000.06
2024-01-14T00:05:10.115Z,100997.50
2024-01-14T00:07:38.389Z,100987.13
2024-01-14T00:10:07.637Z,100986.25
2024-01-14T00:12:35.794Z,100985.31
2024-01-14T00:15:05.932Z,100984.41
2024-01-14T00:17:34.884Z,100981.97
2024-01-14T00:20:04.164Z,100976.75
2024-01-14T00:22:32.282Z,100975.88
2024-01-14T00:25:00.313Z,100972.41
2024-01-14T00:27:28.335Z,100976.81
2024-01-14T00:29:59.274Z,100975.88
2024-01-14T00:32:29.167Z,100968.16
2024-01-14T00:34:57.258Z,100978.53
2024-01-14T00:37:25.939Z,100960.41
2024-01-14T00:39:53.994Z,100962.19
2024-01-14T00:42:22.052Z,100953.56
2024-01-14T00:44:50.084Z,100962.13
2024-01-14T00:47:18.098Z,100950.09
2024-01-14T00:49:48.619Z,100951.81
2024-01-14T00:52:16.830Z,100939.81
2024-01-14T00:54:44.751Z,100944.09
2024-01-14T00:57:12.694Z,100939.78
2024-01-14T00:59:40.684Z,100932.13
2024-01-14T01:02:08.869Z,100932.19
2024-01-14T01:04:36.882Z,100932.94
2024-01-14T01:07:07.268Z,100932.09
2024-01-14T01:09:35.994Z,100933.69
2024-01-14T01:12:04.307Z,100933.66
2024-01-14T01:14:32.490Z,100920.69
2024-01-14T01:17:00.449Z,100917.38
2024-01-14T01:19:28.546Z,100925.91
2024-01-14T01:21:56.623Z,100918.25
2024-01-14T01:24:26.161Z,100907.13
2024-01-14T01:26:54.289Z,100903.66
2024-01-14T01:29:22.567Z,100893.34
2024-01-14T01:31:53.722Z,100899.34
2024-01-14T01:34:26.816Z,100897.63
2024-01-14T01:36:54.907Z,100898.50
2024-01-14T01:39:22.908Z,100893.22
2024-01-14T01:41:53.302Z,100898.50
2024-01-14T01:44:22.744Z,100891.72
2024-01-14T01:46:51.896Z,100896.81
2024-01-14T01:49:21.329Z,100892.47
2024-01-14T01:51:51.240Z,100884.78
2024-01-14T01:54:22.093Z,100884.00
2024-01-14T01:56:52.922Z,100883.06
2024-01-14T01:59:21.617Z,100876.22
2024-01-14T02:01:54.162Z,100859.75
2024-01-14T02:04:22.440Z,100863.25
2024-01-14T02:06:52.543Z,100860.69
2024-01-14T02:09:20.882Z,100852.97
2024-01-14T02:11:48.971Z,100848.69
2024-01-14T02:14:18.379Z,100841.78
2024-01-14T02:16:47.075Z,100820.31
2024-01-14T02:19:15.317Z,100828.84
2024-01-14T02:21:48.298Z,100826.22
2024-01-14T02:24:26.001Z,100812.50
2024-01-14T02:26:54.189Z,100809.88
2024-01-14T02:29:22.784Z,100833.84
2024-01-14T02:31:50.841Z,100830.47
2024-01-14T02:34:19.198Z,100836.44
2024-01-14T02:36:47.288Z,100836.50
2024-01-14T02:39:17.954Z,100831.28
2024-01-14T02:41:47.374Z,100818.56
2024-01-14T02:44:15.390Z,100819.25
2024-01-14T02:46:43.451Z,100814.16
2024-01-14T02:51:39.728Z,100807.38
2024-01-14T02:54:07.772Z,100805.75
2024-01-14T02:56:35.853Z,100798.88
2024-01-14T02:59:05.676Z,100808.38
2024-01-14T03:01:33.636Z,100811.75
2024-01-14T03:04:01.833Z,100805.84
2024-01-14T03:06:29.963Z,100805.00
2024-01-14T03:08:58.074Z,100794.69
2024-01-14T03:11:26.040Z,100794.75
2024-01-14T03:13:54.036Z,100787.75
2024-01-14T03:16:23.456Z,100772.19
2024-01-14T03:18:51.490Z,100766.16
2024-01-14T03:21:20.141Z,100764.34
2024-01-14T03:23:50.310Z,100767.03
2024-01-14T03:26:18.334Z,100773.13
2024-01-14T03:28:46.345Z,100769.69
2024-01-14T03:31:16.370Z,100782.59
2024-01-14T03:33:46.346Z,100796.38
2024-01-14T03:36:16.056Z,100785.25
2024-01-14T03:38:44.898Z,100771.56
2024-01-14T03:41:13.881Z,100764.69
2024-01-14T03:43:41.976Z,100769.91
2024-01-14T03:46:10.316Z,100757.91
2024-01-14T03:48:38.921Z,100763.94
2024-01-14T03:51:08.779Z,100767.41
2024-01-14T03:53:36.739Z,100758.84
2024-01-14T03:56:05.191Z,100756.28
2024-01-14T03:58:33.193Z,100758.91
2024-01-14T04:01:01.307Z,100747.78
2024-01-14T04:03:29.532Z,100750.41
2024-01-14T04:05:57.116Z,100740.09
2024-01-14T04:08:26.592Z,100748.72
2024-01-14T04:10:54.721Z,100753.81
2024-01-14T04:13:22.724Z,100746.09
2024-01-14T04:15:51.297Z,100749.44
2024-01-14T04:18:19.679Z,100744.22
2024-01-14T04:20:47.707Z,100740.00
2024-01-14T04:23:15.793Z,100735.66
2024-01-14T04:25:45.172Z,100734.78
2024-01-14T04:28:13.314Z,100737.44
2024-01-14T04:30:41.354Z,100736.63
2024-01-14T04:33:09.496Z,100721.16
2024-01-14T04:35:37.518Z,100725.53
2024-01-14T04:38:05.707Z,100724.59
2024-01-14T04:40:33.659Z,100730.69
2024-01-14T04:43:04.342Z,100720.38
2024-01-14T04:45:32.457Z,100721.19
2024-01-14T04:48:00.645Z,100722.13
2024-01-14T04:50:29.089Z,100716.06
2024-01-14T04:52:57.459Z,100716.94
2024-01-14T04:55:25.364Z,100709.25
2024-01-14T04:57:53.328Z,100712.72
2024-01-14T05:00:22.893Z,100704.09
2024-01-14T05:02:51.004Z,100705.81
2024-01-14T05:05:19.085Z,100716.16
2024-01-14T05:07:47.061Z,100706.72
2024-01-14T05:10:15.297Z,100710.13
2024-01-14T05:12:43.292Z,100701.59
2024-01-14T05:15:11.602Z,100696.41
2024-01-14T05:17:41.079Z,100695.50
2024-01-14T05:20:10.857Z,100689.50
2024-01-14T05:22:38.882Z,100687.78
2024-01-14T05:25:07.446Z,100691.28
2024-01-14T05:27:35.450Z,100674.94
2024-01-14T05:30:04.922Z,100674.13
2024-01-14T05:32:33.059Z,100680.09
2024-01-14T05:35:02.339Z,100677.53
2024-01-14T05:37:30.285Z,100673.22
2024-01-14T05:39:58.333Z,100674.94
2024-01-14T05:42:26.204Z,100668.84
2024-01-14T05:44:54.085Z,100674.81
2024-01-14T05:47:22.148Z,100669.69
2024-01-14T05:49:50.217Z,100668.03
2024-01-14T05:52:19.552Z,100672.34
2024-01-14T05:54:47.518Z,100664.63
2024-01-14T05:57:15.578Z,100661.19
2024-01-14T05:59:43.945Z,100666.38
2024-01-14T06:02:11.965Z,100662.06
2024-01-14T06:04:40.189Z,100660.34
2024-01-14T06:07:08.338Z,100666.38
2024-01-14T06:09:37.926Z,100659.53
2024-01-14T06:12:06.267Z,100659.53
2024-01-14T06:14:34.221Z,100661.28
2024-01-14T06:17:02.194Z,100661.28
2024-01-14T06:19:30.243Z,100650.09
2024-01-14T06:21:58.171Z,100647.56
2024-01-14T06:24:26.229Z,100646.75
2024-01-14T06:26:57.282Z,100647.56
2024-01-14T06:29:25.627Z,100652.72
2024-01-14T06:31:53.550Z,100644.16
2024-01-14T06:34:21.585Z,100637.28
2024-01-14T06:36:49.701Z,100643.22
2024-01-14T06:39:17.611Z,100636.34
2024-01-14T06:41:46.673Z,100634.59
2024-01-14T06:44:17.328Z,100638.88
2024-01-14T06:46:45.646Z,100631.19
2024-01-14T06:49:13.927Z,100635.50
2024-01-14T06:51:45.574Z,100626.91
2024-01-14T06:54:14.490Z,100627.78
2024-01-14T06:56:46.282Z,100635.50
2024-01-14T06:59:16.040Z,100624.34
2024-01-14T07:01:45.374Z,100638.13
2024-01-14T07:04:13.610Z,100638.13
2024-01-14T07:06:42.272Z,100628.63
2024-01-14T07:09:12.427Z,100626.94
2024-01-14T07:11:40.840Z,100623.53
2024-01-14T07:14:08.936Z,100614.94
2024-01-14T07:16:37.778Z,100614.94
2024-01-14T07:19:07.398Z,100613.19
2024-01-14T07:21:35.779Z,100613.09
2024-01-14T07:24:04.257Z,100609.69
2024-01-14T07:26:32.390Z,100611.41
2024-01-14T07:29:00.389Z,100595.94
2024-01-14T07:31:29.922Z,100602.00
2024-01-14T07:33:58.650Z,100605.41
2024-01-14T07:36:28.131Z,100608.00
2024-01-14T07:38:56.781Z,100608.88
2024-01-14T07:41:24.675Z,100607.16
2024-01-14T07:43:53.152Z,100608.88
2024-01-14T07:46:21.651Z,100613.25
2024-01-14T07:48:49.862Z,100608.91
2024-01-14T07:51:18.820Z,100608.09
2024-01-14T07:53:48.869Z,100608.91
2024-01-14T07:56:16.736Z,100609.75
2024-01-14T07:58:45.335Z,100614.94
2024-01-14T08:01:14.145Z,100617.47
2024-01-14T08:03:42.522Z,100610.63
2024-01-14T08:06:10.995Z,100608.81
2024-01-14T08:08:39.016Z,100600.22
2024-01-14T08:11:08.548Z,100605.38
2024-01-14T08:13:36.532Z,100607.06
2024-01-14T08:16:04.724Z,100606.28
2024-01-14T08:18:33.771Z,100602.06
2024-01-14T08:21:02.265Z,100604.63
2024-01-14T08:23:33.481Z,100607.25
2024-01-14T08:26:03.031Z,100593.38
2024-01-14T08:28:34.195Z,100595.06
2024-01-14T08:31:02.383Z,100595.06
2024-01-14T08:33:31.017Z,100592.47
2024-01-14T08:35:59.318Z,100577.03
2024-01-14T08:38:27.562Z,100596.75
2024-01-14T08:40:55.614Z,100596.81
2024-01-14T08:43:23.672Z,100588.25
2024-01-14T08:45:53.096Z,100590.69
2024-01-14T08:48:21.323Z,100583.78
2024-01-14T08:50:49.380Z,100582.91
2024-01-14T08:53:17.357Z,100581.19
2024-01-14T08:55:45.397Z,100579.47
2024-01-14T08:58:13.963Z,100584.72
2024-01-14T09:00:42.110Z,100580.44
2024-01-14T09:03:11.881Z,100590.63
2024-01-14T09:05:40.105Z,100584.59
2024-01-14T09:08:08.223Z,100582.03
2024-01-14T09:10:36.304Z,100589.81
2024-01-14T09:13:04.533Z,100587.94
2024-01-14T09:15:32.515Z,100594.13
2024-01-14T09:18:00.755Z,100594.94
2024-01-14T09:20:30.406Z,100592.44
2024-01-14T09:22:58.563Z,100599.22
2024-01-14T09:25:26.612Z,100597.44
2024-01-14T09:27:54.751Z,100588.09
2024-01-14T09:30:23.003Z,100579.56
2024-01-14T09:32:50.996Z,100593.19
2024-01-14T09:35:18.947Z,100598.41
2024-01-14T09:37:48.765Z,100597.47
2024-01-14T09:40:18.075Z,100593.09
2024-01-14T09:42:47.105Z,100593.19
2024-01-14T09:45:15.657Z,100595.56
2024-01-14T09:47:44.720Z,100593.94
2024-01-14T09:50:13.094Z,100600.00
2024-01-14T09:52:43.085Z,100595.63
2024-01-14T09:55:12.725Z,100592.03
2024-01-14T09:57:43.242Z,100599.09
2024-01-14T10:00:12.473Z,100599.13
2024-01-14T10:02:40.558Z,100584.59
2024-01-14T10:05:09.312Z,100593.22
2024-01-14T10:07:40.081Z,100583.81
2024-01-14T10:10:09.376Z,100583.00
2024-01-14T10:12:39.442Z,100579.66
2024-01-14T10:15:08.444Z,100581.34
2024-01-14T10:17:36.520Z,100570.22
2024-01-14T10:20:04.795Z,100565.06
2024-01-14T10:22:32.884Z,100560.78
2024-01-14T10:25:02.713Z,100565.13
2024-01-14T10:27:35.961Z,100564.28
2024-01-14T10:30:12.860Z,100550.56
2024-01-14T10:33:16.411Z,100551.44
2024-01-14T10:35:31.694Z,100548.13
2024-01-14T10:38:01.405Z,100541.31
2024-01-14T10:40:29.586Z,100535.28
2024-01-14T10:42:58.743Z,100538.78
2024-01-14T10:45:28.737Z,100531.13
2024-01-14T10:47:59.872Z,100531.09
2024-01-14T10:53:02.677Z,100521.38
2024-01-14T10:55:37.448Z,100516.00
2024-01-14T10:58:06.926Z,100511.69
2024-01-14T11:00:37.935Z,100505.75
2024-01-14T11:03:07.332Z,100497.97
2024-01-14T11:05:37.974Z,100493.84
2024-01-14T11:08:06.898Z,100490.41
2024-01-14T11:10:35.538Z,100486.97
2024-01-14T11:13:13.154Z,100488.53
2024-01-14T11:15:49.722Z,100488.53
2024-01-14T11:18:23.474Z,100479.88
2024-01-14T11:21:11.636Z,100471.94
2024-01-14T11:23:49.397Z,100464.44
2024-01-14T11:26:18.299Z,100462.69
2024-01-14T11:28:46.662Z,100459.16
2024-01-14T11:31:16.247Z,100448.00
2024-01-14T11:33:47.670Z,100444.66
2024-01-14T11:36:53.783Z,100432.78
2024-01-14T11:39:21.837Z,100428.41
2024-01-14T11:41:49.700Z,100429.19
2024-01-14T11:44:32.204Z,100426.78
2024-01-14T11:47:02.491Z,100418.19
2024-01-14T11:49:30.544Z,100412.28
2024-01-14T11:52:02.269Z,100416.56
2024-01-14T11:54:30.352Z,100407.19
2024-01-14T11:56:58.618Z,100399.28
2024-01-14T11:59:35.015Z,100391.63
2024-01-14T12:02:17.984Z,100396.78
2024-01-14T12:04:54.554Z,100389.84
2024-01-14T12:07:26.289Z,100385.53
2024-01-14T12:09:55.281Z,100372.69
2024-01-14T12:12:26.147Z,100373.59
2024-01-14T12:14:54.232Z,100366.84
2024-01-14T12:17:23.612Z,100371.16
2024-01-14T12:19:58.572Z,100361.66
2024-01-14T12:22:27.345Z,100363.38
2024-01-14T12:24:56.233Z,100360.97
2024-01-14T12:27:24.292Z,100351.50
2024-01-14T12:29:52.336Z,100346.34
2024-01-14T12:32:20.602Z,100342.09
2024-01-14T12:34:52.323Z,100323.19
2024-01-14T12:37:23.510Z,100322.31
2024-01-14T12:39:51.565Z,100318.81
2024-01-14T12:42:19.603Z,100310.25
2024-01-14T12:44:48.646Z,100311.00
2024-01-14T12:47:19.426Z,100305.88
2024-01-14T12:49:47.586Z,100305.78
2024-01-14T12:52:16.958Z,100300.56
2024-01-14T12:54:49.924Z,100289.44
2024-01-14T12:57:23.455Z,100279.91
2024-01-14T12:59:52.651Z,100279.91
2024-01-14T13:02:20.838Z,100277.31
2024-01-14T13:04:49.486Z,100272.16
2024-01-14T13:07:19.154Z,100265.22
2024-01-14T13:09:47.376Z,100261.78
2024-01-14T13:12:15.528Z,100268.72
2024-01-14T13:14:43.550Z,100261.84
2024-01-14T13:17:11.453Z,100250.72
2024-01-14T13:19:39.641Z,100257.53
2024-01-14T13:22:08.002Z,100247.31
2024-01-14T13:24:37.264Z,100250.72
2024-01-14T13:27:05.984Z,100246.41
2024-01-14T13:29:33.985Z,100242.16
2024-01-14T13:32:01.981Z,100249.06
2024-01-14T13:34:30.371Z,100245.63
2024-01-14T13:36:58.406Z,100237.00
2024-01-14T13:39:26.833Z,100237.00
2024-01-14T13:41:56.910Z,100230.97
2024-01-14T13:44:24.926Z,100226.63
2024-01-14T13:46:52.867Z,100223.25
2024-01-14T13:49:21.032Z,100220.66
2024-01-14T13:51:50.717Z,100221.50
2024-01-14T13:54:18.758Z,100218.94
2024-01-14T13:56:46.944Z,100210.41
2024-01-14T13:59:16.230Z,100214.72
2024-01-14T14:01:44.235Z,100201.06
2024-01-14T14:04:11.451Z,100199.38
2024-01-14T14:06:40.253Z,100194.25
2024-01-14T14:09:09.668Z,100181.44
2024-01-14T14:11:38.429Z,100178.88
2024-01-14T14:14:07.088Z,100181.50
2024-01-14T14:16:41.533Z,100188.38
2024-01-14T14:19:11.851Z,100172.03
2024-01-14T14:24:13.571Z,100166.13
2024-01-14T14:26:41.712Z,100167.75
2024-01-14T14:29:10.337Z,100154.84
2024-01-14T14:31:48.157Z,100157.38
2024-01-14T14:34:19.682Z,100154.81
2024-01-14T14:36:48.981Z,100151.28
2024-01-14T14:39:17.539Z,100146.97
2024-01-14T14:41:45.980Z,100159.84
2024-01-14T14:44:14.102Z,100151.34
2024-01-14T14:46:43.683Z,100153.03
2024-01-14T14:49:12.230Z,100144.34
2024-01-14T14:51:42.304Z,100146.97
2024-01-14T14:54:11.632Z,100136.66
2024-01-14T14:56:40.674Z,100141.00
2024-01-14T14:59:09.623Z,100140.16
2024-01-14T15:01:43.028Z,100140.97
2024-01-14T15:04:16.117Z,100141.84
2024-01-14T15:06:45.869Z,100132.38
2024-01-14T15:09:15.446Z,100132.38
2024-01-14T15:11:43.908Z,100128.91
2024-01-14T15:14:12.668Z,100128.00
2024-01-14T15:16:42.462Z,100127.97
2024-01-14T15:19:10.782Z,100115.91
2024-01-14T15:21:40.756Z,100109.94
2024-01-14T15:24:08.888Z,100111.63
2024-01-14T15:26:37.050Z,100103.94
2024-01-14T15:29:05.492Z,100104.84
2024-01-14T15:31:34.247Z,100098.78
2024-01-14T15:34:02.547Z,100107.34
2024-01-14T15:36:30.868Z,100100.47
2024-01-14T15:39:01.617Z,100103.88
2024-01-14T15:41:30.857Z,100091.78
2024-01-14T15:43:58.894Z,100092.66
2024-01-14T15:46:27.501Z,100088.34
2024-01-14T15:48:56.297Z,100075.47
2024-01-14T15:51:24.870Z,100081.47
2024-01-14T15:53:53.502Z,100079.72
2024-01-14T15:56:22.898Z,100074.59
2024-01-14T15:58:50.997Z,100071.13
2024-01-14T16:01:21.382Z,100061.69
2024-01-14T16:03:50.089Z,100062.53
2024-01-14T16:06:18.268Z,100066.03
2024-01-14T16:08:47.170Z,100059.16
2024-01-14T16:11:15.849Z,100054.88
2024-01-14T16:13:45.273Z,100052.28
2024-01-14T16:16:13.360Z,100043.72
2024-01-14T16:18:41.301Z,100034.31
2024-01-14T16:21:09.447Z,100042.06
2024-01-14T16:23:39.375Z,100030.03
2024-01-14T16:26:09.332Z,100033.44
2024-01-14T16:28:37.844Z,100029.19
2024-01-14T16:31:12.658Z,100025.75
2024-01-14T16:33:43.934Z,100023.97
2024-01-14T16:36:13.861Z,100020.56
2024-01-14T16:38:42.149Z,100023.13
2024-01-14T16:41:10.895Z,100019.69
2024-01-14T16:43:39.299Z,100017.16
2024-01-14T16:46:08.866Z,100020.56
2024-01-14T16:48:37.479Z,100023.16
2024-01-14T16:51:10.197Z,100014.53
2024-01-14T16:53:41.319Z,100005.09
2024-01-14T16:56:14.734Z,100009.41
2024-01-14T16:58:44.670Z,100001.59
2024-01-14T17:01:18.343Z,100000.75
2024-01-14T17:03:49.786Z,99997.28
2024-01-14T17:06:19.296Z,99990.31
2024-01-14T17:08:48.566Z,99991.19
2024-01-14T17:11:20.557Z,99991.22
2024-01-14T17:13:48.899Z,99992.06
2024-01-14T17:16:23.917Z,99986.06
2024-01-14T17:18:53.620Z,99985.22
2024-01-14T17:21:22.005Z,99984.38
2024-01-14T17:23:50.289Z,99978.41
2024-01-14T17:26:19.266Z,99979.25
2024-01-14T17:28:48.967Z,99964.69
2024-01-14T17:31:19.410Z,99965.59
2024-01-14T17:33:50.159Z,99969.88
2024-01-14T17:36:19.677Z,99965.59
2024-01-14T17:38:49.802Z,99962.06
2024-01-14T17:41:18.735Z,99966.47
2024-01-14T17:43:47.082Z,99950.94
2024-01-14T17:46:16.045Z,99947.50
2024-01-14T17:48:45.516Z,99939.66
2024-01-14T17:51:15.339Z,99945.69
2024-01-14T17:53:43.528Z,99950.03
2024-01-14T17:56:13.913Z,99947.44
2024-01-14T17:58:42.484Z,99941.38
2024-01-14T18:01:11.682Z,99935.38
2024-01-14T18:03:41.856Z,99929.38
2024-01-14T18:06:12.483Z,99928.53
2024-01-14T18:08:42.295Z,99931.06
2024-01-14T18:11:10.762Z,99931.09
2024-01-14T18:13:38.779Z,99923.38
2024-01-14T18:16:07.400Z,99929.38
2024-01-14T18:18:36.401Z,99922.53
2024-01-14T18:21:05.046Z,99921.69
2024-01-14T18:23:33.243Z,99913.88
2024-01-14T18:26:03.506Z,99908.75
2024-01-14T18:28:31.465Z,99909.59
2024-01-14T18:30:59.471Z,99908.75
2024-01-14T18:33:27.652Z,99912.16
2024-01-14T18:35:55.618Z,99907.84
2024-01-14T18:38:25.572Z,99907.00
2024-01-14T18:40:53.453Z,99919.03
2024-01-14T18:43:22.768Z,99901.88
2024-01-14T18:45:50.819Z,99901.00
2024-01-14T18:48:19.131Z,99905.22
2024-01-14T18:50:48.702Z,99907.84
2024-01-14T18:53:16.753Z,99906.13
2024-01-14T18:55:44.812Z,99908.69
2024-01-14T18:58:13.033Z,99915.53
2024-01-14T19:00:43.279Z,99914.69
2024-01-14T19:03:11.416Z,99906.91
2024-01-14T19:05:39.623Z,99902.69
2024-01-14T19:08:07.886Z,99894.06
2024-01-14T19:10:35.997Z,99882.91
2024-01-14T19:13:04.280Z,99876.88
2024-01-14T19:15:32.250Z,99883.78
2024-01-14T19:18:01.845Z,99880.31
2024-01-14T19:20:29.880Z,99886.38
2024-01-14T19:22:57.856Z,99875.22
2024-01-14T19:25:25.880Z,99875.25
2024-01-14T19:27:54.246Z,99874.34
2024-01-14T19:30:22.253Z,99883.81
2024-01-14T19:32:50.295Z,99875.25
2024-01-14T19:35:19.815Z,99884.69
2024-01-14T19:37:48.044Z,99887.28
2024-01-14T19:40:16.753Z,99884.66
2024-01-14T19:42:44.919Z,99877.81
2024-01-14T19:47:41.822Z,99876.09
2024-01-14T19:50:12.195Z,99870.88
2024-01-14T19:52:41.423Z,99870.00
2024-01-14T19:55:09.749Z,99870.84
2024-01-14T19:57:38.449Z,99876.00
2024-01-14T20:00:10.577Z,99863.09
2024-01-14T20:02:38.968Z,99863.91
2024-01-14T20:05:08.784Z,99851.03
2024-01-14T20:07:37.112Z,99851.00
2024-01-14T20:10:07.447Z,99839.81
2024-01-14T20:12:35.715Z,99854.47
2024-01-14T20:15:04.917Z,99850.09
2024-01-14T20:17:33.158Z,99840.69
2024-01-14T20:20:01.290Z,99852.75
2024-01-14T20:22:29.461Z,99840.75
2024-01-14T20:24:59.067Z,99845.88
2024-01-14T20:27:28.634Z,99845.03
2024-01-14T20:29:56.711Z,99832.97
2024-01-14T20:32:24.990Z,99836.38
2024-01-14T20:34:53.193Z,99829.47
2024-01-14T20:37:21.231Z,99832.00
2024-01-14T20:39:50.068Z,99830.16
2024-01-14T20:42:18.237Z,99822.44
2024-01-14T20:44:50.845Z,99825.00
2024-01-14T20:47:18.951Z,99831.88
2024-01-14T20:49:47.419Z,99827.56
2024-01-14T20:52:16.102Z,99819.84
2024-01-14T20:54:44.050Z,99816.44
2024-01-14T20:57:12.978Z,99815.56
2024-01-14T20:59:41.109Z,99819.84
2024-01-14T21:02:11.395Z,99810.44
2024-01-14T21:04:39.387Z,99812.88
2024-01-14T21:07:07.523Z,99806.81
2024-01-14T21:09:37.381Z,99811.13
2024-01-14T21:12:06.989Z,99803.34
2024-01-14T21:14:35.231Z,99808.47
2024-01-14T21:17:03.965Z,99805.84
2024-01-14T21:19:33.484Z,99796.41
2024-01-14T21:22:01.587Z,99790.41
2024-01-14T21:24:29.534Z,99798.13
2024-01-14T21:26:57.394Z,99786.97
2024-01-14T21:29:25.352Z,99787.84
2024-01-14T21:31:53.331Z,99783.50
2024-01-14T21:34:21.340Z,99780.94
2024-01-14T21:36:50.840Z,99780.94
2024-01-14T21:39:18.733Z,99789.50
2024-01-14T21:41:46.626Z,99786.94
2024-01-14T21:44:14.519Z,99784.38
2024-01-14T21:46:42.401Z,99784.38
2024-01-14T21:49:10.474Z,99778.41
2024-01-14T21:51:41.456Z,99789.53
2024-01-14T21:54:10.878Z,99792.97
2024-01-14T21:56:38.746Z,99785.25
2024-01-14T21:59:06.916Z,99777.53
2024-01-14T22:01:34.947Z,99779.25
2024-01-14T22:04:03.693Z,99783.53
2024-01-14T22:06:35.942Z,99771.53
2024-01-14T22:09:05.890Z,99774.97
2024-01-14T22:11:35.163Z,99775.81
2024-01-14T22:14:03.254Z,99767.28
2024-01-14T22:16:31.129Z,99781.00
2024-01-14T22:18:59.036Z,99778.41
2024-01-14T22:21:44.659Z,99773.28
2024-01-14T22:24:13.621Z,99774.13
2024-01-14T22:26:42.978Z,99769.03
2024-01-14T22:29:24.729Z,99779.34
2024-01-14T22:31:54.562Z,99775.06
2024-01-14T22:34:23.606Z,99760.50
2024-01-14T22:36:52.225Z,99765.66
2024-01-14T22:39:20.632Z,99763.97
2024-01-14T22:41:50.354Z,99772.53
2024-01-14T22:44:18.386Z,99763.09
2024-01-14T22:46:46.357Z,99770.00
2024-01-14T22:49:14.466Z,99776.88
2024-01-14T22:51:43.222Z,99759.75
2024-01-14T22:54:11.694Z,99775.19
2024-01-14T22:56:39.838Z,99771.75
2024-01-14T22:59:10.052Z,99773.50
2024-01-14T23:01:38.815Z,99764.94
2024-01-14T23:04:06.964Z,99764.06
2024-01-14T23:06:35.013Z,99766.66
2024-01-14T23:09:03.151Z,99764.97
2024-01-14T23:11:31.360Z,99761.53
2024-01-14T23:13:59.412Z,99765.84
2024-01-14T23:16:28.846Z,99773.53
2024-01-14T23:18:56.914Z,99766.72
2024-01-14T23:21:24.913Z,99772.69
2024-01-14T23:23:53.397Z,99762.41
2024-01-14T23:26:21.538Z,99753.84
2024-01-14T23:28:49.582Z,99757.31
2024-01-14T23:31:17.579Z,99747.84
2024-01-14T23:33:47.056Z,99745.31
2024-01-14T23:36:15.121Z,99736.75
2024-01-14T23:38:43.337Z,99747.03
2024-01-14T23:41:11.323Z,99752.22
2024-01-14T23:43:39.390Z,99745.34
2024-01-14T23:46:07.573Z,99744.44
2024-01-14T23:48:35.671Z,99731.59
2024-01-14T23:51:06.126Z,99731.63
2024-01-14T23:53:34.092Z,99725.63
2024-01-14T23:56:01.994Z,99711.06
2024-01-14T23:58:29.948Z,99720.53
